Time;durP1;ratioP1;P1;durP2;ratioP2;P2;SDS_P1;SDS_P2;PMS_P1;PMS_P2;Temp;Humidity;BMP_temperature;BMP_pressure;BME280_temperature;BME280_humidity;BME280_pressure;Samples;Min_cycle;Max_cycle;Signal;HPM_P1;HPM_P2
2022/03/04 00:00:52;;;;;;;17.77;12.70;;;;;;;-4.15;100.00;97156.88;4968045;28;21906;-51
2022/03/04 00:03:20;;;;;;;14.97;10.63;;;;;;;-3.98;100.00;97160.19;4947520;28;20300;-56
2022/03/04 00:05:49;;;;;;;19.33;12.90;;;;;;;-3.86;100.00;97161.19;4928194;28;20236;-51
2022/03/04 00:08:17;;;;;;;17.97;12.20;;;;;;;-3.72;100.00;97174.16;4965970;28;20544;-56
2022/03/04 00:10:45;;;;;;;14.23;10.93;;;;;;;-3.50;100.00;97165.88;4962211;28;20960;-52
2022/03/04 00:13:13;;;;;;;14.50;11.93;;;;;;;-3.55;100.00;97169.66;4957247;28;20654;-50
2022/03/04 00:15:43;;;;;;;16.73;12.10;;;;;;;-3.69;100.00;97173.94;4956895;28;20261;-51
2022/03/04 00:18:11;;;;;;;13.83;11.17;;;;;;;-3.55;100.00;97172.25;4962859;28;20428;-51
2022/03/04 00:20:40;;;;;;;15.67;11.40;;;;;;;-3.87;100.00;97169.88;4921419;28;20518;-52
2022/03/04 00:23:08;;;;;;;13.03;11.13;;;;;;;-3.80;100.00;97169.44;4969091;28;20309;-58
2022/03/04 00:25:36;;;;;;;12.63;10.97;;;;;;;-3.72;100.00;97174.16;4963023;28;20296;-50
2022/03/04 00:28:04;;;;;;;16.57;11.47;;;;;;;-3.89;100.00;97163.97;4963511;28;20240;-55
2022/03/04 00:30:33;;;;;;;15.63;12.40;;;;;;;-4.01;100.00;97178.50;4951660;28;21127;-52
2022/03/04 00:33:02;;;;;;;15.13;10.90;;;;;;;-4.18;100.00;97167.41;4966052;28;20237;-54
2022/03/04 00:35:30;;;;;;;16.53;11.57;;;;;;;-4.25;100.00;97174.69;4906724;28;21574;-51
2022/03/04 00:37:59;;;;;;;17.43;11.10;;;;;;;-3.99;100.00;97171.47;4968977;28;20209;-51
2022/03/04 00:40:27;;;;;;;14.23;10.93;;;;;;;-3.87;100.00;97162.97;4958764;28;20226;-52
2022/03/04 00:42:55;;;;;;;15.80;12.60;;;;;;;-3.89;100.00;97157.06;4964856;28;20248;-53
2022/03/04 00:45:23;;;;;;;11.70;9.67;;;;;;;-3.90;100.00;97154.56;4948932;28;20317;-50
2022/03/04 00:47:51;;;;;;;13.00;11.60;;;;;;;-3.87;100.00;97154.34;4965683;28;20248;-53
2022/03/04 00:50:21;;;;;;;14.87;12.30;;;;;;;-4.05;100.00;97143.38;4951696;28;20261;-55
2022/03/04 00:52:49;;;;;;;15.60;11.83;;;;;;;-4.03;100.00;97152.72;4931265;28;20216;-54
2022/03/04 00:55:17;;;;;;;14.60;11.40;;;;;;;-4.36;100.00;97156.41;4961905;28;20489;-52
2022/03/04 00:57:46;;;;;;;15.40;12.30;;;;;;;-4.54;100.00;97159.19;4964639;28;20234;-52
2022/03/04 01:00:15;;;;;;;18.00;12.33;;;;;;;-4.72;100.00;97166.25;4957414;28;20473;-49
2022/03/04 01:02:43;;;;;;;18.03;12.43;;;;;;;-4.84;100.00;97165.22;4964008;28;20750;-56
2022/03/04 01:05:12;;;;;;;12.60;10.73;;;;;;;-4.59;100.00;97158.59;4947511;28;20320;-54
2022/03/04 01:07:41;;;;;;;16.07;12.90;;;;;;;-4.26;100.00;97154.94;4924748;28;20894;-53
2022/03/04 01:10:10;;;;;;;15.60;12.30;;;;;;;-4.16;100.00;97155.22;4964992;28;20807;-52
2022/03/04 01:12:38;;;;;;;17.77;12.17;;;;;;;-4.24;100.00;97152.25;4962124;28;21125;-52
2022/03/04 01:15:07;;;;;;;13.07;10.87;;;;;;;-4.40;100.00;97142.81;4961322;28;20258;-55
2022/03/04 01:17:36;;;;;;;12.80;10.97;;;;;;;-4.42;100.00;97144.66;4954393;28;20728;-51
2022/03/04 01:20:06;;;;;;;16.87;12.87;;;;;;;-4.57;100.00;97132.66;4948929;28;20449;-54
2022/03/04 01:22:34;;;;;;;17.23;12.73;;;;;;;-4.74;100.00;97138.81;4961918;28;20341;-54
2022/03/04 01:25:04;;;;;;;17.30;12.40;;;;;;;-4.76;100.00;97135.50;4923670;28;20320;-56
2022/03/04 01:27:33;;;;;;;15.73;11.50;;;;;;;-4.82;100.00;97140.09;4963266;28;20757;-52
2022/03/04 01:30:01;;;;;;;15.83;12.13;;;;;;;-4.88;100.00;97111.19;4944656;28;20297;-56
2022/03/04 01:32:29;;;;;;;13.73;12.17;;;;;;;-4.73;100.00;97132.72;4955155;28;20213;-55
2022/03/04 01:34:57;;;;;;;14.80;11.07;;;;;;;-4.68;100.00;97136.72;4957330;28;20758;-52
2022/03/04 01:37:26;;;;;;;15.33;10.97;;;;;;;-4.70;100.00;97133.38;4957809;28;20820;-54
2022/03/04 01:39:54;;;;;;;18.33;12.70;;;;;;;-4.86;100.00;97120.53;4904765;28;20305;-54
2022/03/04 01:42:24;;;;;;;16.10;11.70;;;;;;;-4.87;100.00;97102.50;4961477;28;20634;-53
2022/03/04 01:44:52;;;;;;;15.87;12.30;;;;;;;-4.71;100.00;97131.72;4964427;28;21021;-47
2022/03/04 01:47:20;;;;;;;15.00;11.77;;;;;;;-4.45;100.00;97126.75;4948159;28;20519;-52
2022/03/04 01:49:48;;;;;;;17.63;13.73;;;;;;;-4.21;100.00;97126.19;4970279;28;20751;-51
2022/03/04 01:52:17;;;;;;;19.00;12.33;;;;;;;-4.12;100.00;97125.63;4944341;28;20746;-54
2022/03/04 01:54:45;;;;;;;15.90;12.90;;;;;;;-4.11;100.00;97123.91;4923756;28;20257;-54
2022/03/04 01:57:13;;;;;;;17.93;12.70;;;;;;;-4.12;100.00;97119.66;4960476;28;20744;-51
2022/03/04 01:59:43;;;;;;;16.10;11.60;;;;;;;-4.07;100.00;97123.59;4967670;28;20686;-49
2022/03/04 02:02:11;;;;;;;17.13;12.77;;;;;;;-4.11;100.00;97116.94;4968403;28;20632;-51
2022/03/04 02:04:39;;;;;;;17.30;13.00;;;;;;;-4.12;100.00;97112.69;4949287;28;20766;-50
2022/03/04 02:07:07;;;;;;;12.70;11.17;;;;;;;-3.98;100.00;97114.44;4945235;28;20817;-49
2022/03/04 02:09:36;;;;;;;16.13;12.17;;;;;;;-3.96;100.00;97112.59;4956942;28;20680;-51
2022/03/04 02:12:05;;;;;;;15.97;11.90;;;;;;;-3.98;100.00;97114.44;4940867;28;20459;-50
2022/03/04 02:14:33;;;;;;;18.13;12.20;;;;;;;-4.08;100.00;97111.59;4971621;28;20252;-51
2022/03/04 02:17:03;;;;;;;13.60;11.50;;;;;;;-4.17;100.00;97114.75;4968754;28;20226;-49
2022/03/04 02:19:32;;;;;;;17.80;11.33;;;;;;;-4.38;100.00;97122.84;4952763;28;20484;-49
2022/03/04 02:22:03;;;;;;;13.43;11.50;;;;;;;-4.48;100.00;97114.00;4967753;28;20201;-50
2022/03/04 02:24:34;;;;;;;15.87;12.73;;;;;;;-4.51;100.00;97104.69;4941114;28;20599;-48
2022/03/04 02:27:04;;;;;;;18.00;11.97;;;;;;;-4.46;100.00;97116.50;4938354;28;20228;-52
2022/03/04 02:29:34;;;;;;;13.57;10.73;;;;;;;-4.44;100.00;97117.25;4967367;28;20654;-51
2022/03/04 02:32:03;;;;;;;17.83;12.27;;;;;;;-4.32;100.00;97113.91;4966258;28;20296;-50
2022/03/04 02:34:31;;;;;;;17.97;13.23;;;;;;;-4.25;100.00;97111.78;4948536;28;20202;-56
2022/03/04 02:37:01;;;;;;;16.70;12.03;;;;;;;-4.27;100.00;97111.06;4969293;28;20800;-52
2022/03/04 02:39:29;;;;;;;18.87;11.73;;;;;;;-4.22;100.00;97112.41;4943966;28;20501;-52
2022/03/04 02:41:57;;;;;;;13.97;11.87;;;;;;;-4.31;100.00;97125.09;4921975;28;20320;-53
2022/03/04 02:44:26;;;;;;;14.27;11.93;;;;;;;-4.38;100.00;97124.63;4968860;28;20260;-54
2022/03/04 02:46:54;;;;;;;15.50;10.93;;;;;;;-4.49;100.00;97117.50;4963819;28;20519;-49
2022/03/04 02:49:22;;;;;;;13.20;11.67;;;;;;;-4.47;100.00;97115.66;4947294;28;20500;-48
2022/03/04 02:51:50;;;;;;;15.57;12.20;;;;;;;-4.83;100.00;97112.59;4967081;28;20547;-47
2022/03/04 02:54:21;;;;;;;18.57;12.67;;;;;;;-4.88;100.00;97124.09;4966914;28;20256;-51
2022/03/04 02:56:49;;;;;;;14.97;11.00;;;;;;;-4.77;100.00;97110.56;4897207;28;20365;-54
2022/03/04 02:59:17;;;;;;;17.50;12.13;;;;;;;-4.79;100.00;97126.16;4966171;28;20280;-51
2022/03/04 03:01:45;;;;;;;16.03;12.50;;;;;;;-4.69;100.00;97127.28;4963127;28;20261;-52
2022/03/04 03:04:14;;;;;;;16.90;12.23;;;;;;;-4.67;100.00;97132.34;4948118;28;20349;-50
2022/03/04 03:06:42;;;;;;;15.37;11.70;;;;;;;-4.71;100.00;97133.47;4966891;28;20292;-50
2022/03/04 03:09:10;;;;;;;15.53;11.13;;;;;;;-4.95;100.00;97136.53;4967874;28;20735;-51
2022/03/04 03:11:40;;;;;;;14.57;12.13;;;;;;;-5.03;100.00;97138.72;4945199;28;20216;-51
2022/03/04 03:14:08;;;;;;;15.20;12.57;;;;;;;-5.33;100.00;97137.81;4921700;28;20478;-52
2022/03/04 03:16:36;;;;;;;15.73;12.37;;;;;;;-5.43;100.00;97139.25;4964152;28;20551;-50
2022/03/04 03:19:08;;;;;;;15.83;13.13;;;;;;;-5.60;100.00;97141.00;4949699;28;20480;-51
2022/03/04 03:21:36;;;;;;;19.17;13.80;;;;;;;-5.75;100.00;97141.84;4966412;28;20464;-50
2022/03/04 03:24:06;;;;;;;18.33;14.27;;;;;;;-5.67;100.00;97150.00;4966213;28;20256;-48
2022/03/04 03:26:34;;;;;;;15.47;12.30;;;;;;;-5.61;100.00;97144.50;4947057;28;20261;-50
2022/03/04 03:29:03;;;;;;;16.83;13.03;;;;;;;-5.40;100.00;97149.41;4921538;28;20383;-49
2022/03/04 03:31:32;;;;;;;18.87;12.23;;;;;;;-5.21;100.00;97150.94;4963339;28;20212;-51
2022/03/04 03:34:00;;;;;;;18.53;12.57;;;;;;;-5.17;100.00;97148.13;4971797;28;20237;-52
2022/03/04 03:36:28;;;;;;;15.17;12.97;;;;;;;-5.20;100.00;97148.28;4949058;28;20576;-51
2022/03/04 03:38:56;;;;;;;17.77;13.47;;;;;;;-5.27;100.00;97144.41;4968316;28;20523;-49
2022/03/04 03:41:25;;;;;;;17.60;11.83;;;;;;;-5.17;100.00;97152.44;4946946;28;20210;-51
2022/03/04 03:43:53;;;;;;;15.67;11.43;;;;;;;-5.19;100.00;97149.09;4918675;28;21175;-53
2022/03/04 03:46:23;;;;;;;19.27;12.53;;;;;;;-5.18;100.00;97145.59;4964820;28;20226;-49
2022/03/04 03:48:51;;;;;;;19.37;12.93;;;;;;;-5.10;100.00;97148.59;4962185;28;20539;-47
2022/03/04 03:51:20;;;;;;;17.93;12.97;;;;;;;-5.08;100.00;97146.78;4948864;28;20314;-52
2022/03/04 03:53:48;;;;;;;17.67;13.33;;;;;;;-5.30;100.00;97153.13;4963777;28;20206;-49
2022/03/04 03:56:16;;;;;;;18.97;13.53;;;;;;;-5.17;100.00;97149.84;4967941;28;20233;-49
2022/03/04 03:58:44;;;;;;;21.37;13.63;;;;;;;-5.42;100.00;97151.25;4943114;28;20464;-51
2022/03/04 04:01:13;;;;;;;17.20;13.23;;;;;;;-5.23;100.00;97151.03;4915114;28;20552;-50
2022/03/04 04:03:42;;;;;;;21.47;13.90;;;;;;;-5.14;100.00;97152.25;4963007;28;20524;-49
2022/03/04 04:06:10;;;;;;;16.97;13.57;;;;;;;-5.30;100.00;97155.72;4945650;28;20626;-53
2022/03/04 04:08:39;;;;;;;15.47;12.93;;;;;;;-5.13;100.00;97153.91;4964035;28;20210;-47
2022/03/04 04:11:07;;;;;;;16.00;12.87;;;;;;;-5.18;100.00;97156.78;4961864;28;20355;-47
2022/03/04 04:13:35;;;;;;;18.60;13.87;;;;;;;-5.10;100.00;97153.78;4942447;28;20210;-49
2022/03/04 04:16:03;;;;;;;14.87;13.03;;;;;;;-5.18;100.00;97167.13;4919647;28;20463;-54
2022/03/04 04:18:32;;;;;;;17.83;13.93;;;;;;;-5.36;100.00;97161.22;4962165;28;20971;-48
2022/03/04 04:21:02;;;;;;;18.10;13.50;;;;;;;-5.29;100.00;97165.13;4964424;28;20700;-53
2022/03/04 04:23:30;;;;;;;19.00;13.13;;;;;;;-5.44;100.00;97169.38;4947875;28;20209;-52
2022/03/04 04:25:58;;;;;;;16.47;13.20;;;;;;;-5.49;100.00;97168.81;4965306;28;20408;-53
2022/03/04 04:28:27;;;;;;;18.43;13.40;;;;;;;-5.39;100.00;97171.72;4944848;28;20266;-51
2022/03/04 04:30:55;;;;;;;19.97;13.27;;;;;;;-5.52;100.00;97172.38;4916927;28;21731;-54
2022/03/04 04:33:23;;;;;;;16.60;12.70;;;;;;;-5.50;100.00;97177.47;4967005;28;20232;-53
2022/03/04 04:35:52;;;;;;;18.87;13.27;;;;;;;-5.62;100.00;97173.81;4959301;28;20696;-50
2022/03/04 04:38:22;;;;;;;21.77;14.20;;;;;;;-5.74;100.00;97156.41;4947716;28;20241;-49
2022/03/04 04:40:50;;;;;;;18.70;13.17;;;;;;;-5.65;100.00;97175.75;4959966;28;20765;-51
2022/03/04 04:43:18;;;;;;;20.03;14.23;;;;;;;-5.53;100.00;97168.13;4966264;28;20241;-49
2022/03/04 04:45:47;;;;;;;20.50;15.00;;;;;;;-5.45;100.00;97175.47;4933472;28;20470;-54
2022/03/04 04:48:15;;;;;;;22.17;16.23;;;;;;;-5.45;100.00;97169.50;4921926;28;20310;-49
2022/03/04 04:50:43;;;;;;;22.40;14.83;;;;;;;-5.02;100.00;97172.25;4958895;28;20301;-49
2022/03/04 04:53:11;;;;;;;21.00;13.40;;;;;;;-5.07;100.00;97176.84;4957637;28;20332;-49
2022/03/04 04:55:41;;;;;;;16.27;13.87;;;;;;;-5.29;100.00;97165.13;4963660;28;20262;-53
2022/03/04 04:58:09;;;;;;;24.57;14.50;;;;;;;-5.47;100.00;97181.66;4966054;28;20241;-53
2022/03/04 05:00:37;;;;;;;22.37;16.67;;;;;;;-5.49;100.00;97180.88;4943336;28;20256;-51
2022/03/04 05:03:06;;;;;;;21.00;14.43;;;;;;;-5.41;100.00;97176.16;4921440;28;20209;-51
2022/03/04 05:05:34;;;;;;;19.10;14.00;;;;;;;-5.19;100.00;97185.28;4958611;28;20226;-49
2022/03/04 05:08:03;;;;;;;20.70;14.27;;;;;;;-5.15;100.00;97186.75;4947000;28;20496;-53
2022/03/04 05:10:31;;;;;;;19.73;13.70;;;;;;;-5.26;100.00;97195.94;4964616;28;20341;-48
2022/03/04 05:13:01;;;;;;;18.17;13.37;;;;;;;-5.21;100.00;97189.69;4963884;28;20388;-53
2022/03/04 05:15:29;;;;;;;20.87;14.50;;;;;;;-5.25;100.00;97201.97;4912746;28;20225;-50
2022/03/04 05:17:58;;;;;;;21.67;14.30;;;;;;;-5.25;100.00;97200.19;4938638;28;20534;-52
2022/03/04 05:20:26;;;;;;;23.37;16.70;;;;;;;-5.38;100.00;97197.44;4950123;28;20430;-49
2022/03/04 05:22:55;;;;;;;21.23;14.47;;;;;;;-5.19;100.00;97209.38;4940898;28;20876;-50
2022/03/04 05:25:23;;;;;;;21.57;15.80;;;;;;;-5.09;100.00;97200.19;4956250;28;20949;-46
2022/03/04 05:27:51;;;;;;;20.73;14.83;;;;;;;-5.07;100.00;97194.94;4965640;28;20945;-51
2022/03/04 05:30:21;;;;;;;19.07;13.33;;;;;;;-5.31;100.00;97208.28;4940604;28;21458;-51
2022/03/04 05:32:49;;;;;;;25.07;15.80;;;;;;;-5.44;100.00;97202.16;4966971;28;20997;-50
2022/03/04 05:35:17;;;;;;;18.07;14.47;;;;;;;-5.57;100.00;97209.72;4913439;28;20395;-49
2022/03/04 05:37:46;;;;;;;21.53;14.63;;;;;;;-5.17;100.00;97214.44;4942095;28;20552;-53
2022/03/04 05:40:14;;;;;;;20.40;14.97;;;;;;;-5.44;100.00;97215.06;4947404;28;20746;-52
2022/03/04 05:42:42;;;;;;;22.97;14.87;;;;;;;-5.55;100.00;97213.88;4963953;28;20488;-46
2022/03/04 05:45:11;;;;;;;21.93;14.20;;;;;;;-5.50;100.00;97218.78;4944674;28;20489;-49
2022/03/04 05:47:41;;;;;;;20.87;14.43;;;;;;;-5.39;100.00;97216.44;4965743;28;20210;-50
2022/03/04 05:50:10;;;;;;;23.07;14.07;;;;;;;-5.29;100.00;97221.13;4918042;28;20224;-51
2022/03/04 05:52:38;;;;;;;21.63;15.53;;;;;;;-5.48;100.00;97216.13;4953317;28;20853;-48
2022/03/04 05:55:08;;;;;;;24.37;15.80;;;;;;;-5.32;100.00;97216.13;4946746;28;20347;-50
2022/03/04 05:57:36;;;;;;;21.43;14.70;;;;;;;-5.54;100.00;97215.53;4964435;28;20202;-51
2022/03/04 06:00:05;;;;;;;25.80;16.07;;;;;;;-5.82;100.00;97221.34;4945894;28;23602;-47
2022/03/04 06:02:33;;;;;;;22.50;15.17;;;;;;;-5.89;100.00;97220.00;4964299;28;20213;-45
2022/03/04 06:05:03;;;;;;;23.20;14.87;;;;;;;-5.91;100.00;97225.22;4920295;28;20657;-52
2022/03/04 06:07:35;;;;;;;26.27;15.57;;;;;;;-5.92;100.00;97227.91;4961279;28;20296;-52
2022/03/04 06:10:03;;;;;;;21.53;16.00;;;;;;;-5.55;100.00;97228.53;4955467;28;21146;-54
2022/03/04 06:12:31;;;;;;;26.20;15.83;;;;;;;-5.12;100.00;97238.25;4962964;28;20631;-46
2022/03/04 06:15:00;;;;;;;25.23;16.83;;;;;;;-5.06;100.00;97239.69;4941354;28;20228;-50
2022/03/04 06:17:28;;;;;;;24.30;16.00;;;;;;;-5.32;100.00;97242.78;4948995;28;20446;-54
2022/03/04 06:19:57;;;;;;;25.07;16.37;;;;;;;-5.56;100.00;97229.47;4952051;28;20311;-52
2022/03/04 06:22:27;;;;;;;23.03;16.57;;;;;;;-5.56;100.00;97238.03;4930341;28;20352;-53
2022/03/04 06:24:55;;;;;;;23.43;16.17;;;;;;;-5.65;100.00;97243.69;4947810;28;20683;-47
2022/03/04 06:27:24;;;;;;;20.93;15.83;;;;;;;-5.40;100.00;97244.97;4946671;28;20825;-49
2022/03/04 06:29:52;;;;;;;27.57;17.17;;;;;;;-4.99;100.00;97246.19;4964000;28;20301;-51
2022/03/04 06:32:20;;;;;;;24.30;16.87;;;;;;;-5.02;100.00;97251.53;4945280;28;20214;-47
2022/03/04 06:34:48;;;;;;;24.00;16.90;;;;;;;-5.09;100.00;97256.22;4967877;28;20315;-51
2022/03/04 06:37:16;;;;;;;27.63;17.73;;;;;;;-5.13;100.00;97259.84;4922703;28;20987;-48
2022/03/04 06:39:46;;;;;;;19.87;15.30;;;;;;;-5.06;100.00;97262.94;4949567;28;20213;-52
2022/03/04 06:42:14;;;;;;;24.47;16.33;;;;;;;-5.08;100.00;97265.63;4948269;28;20318;-46
2022/03/04 06:44:42;;;;;;;24.97;17.33;;;;;;;-5.02;100.00;97267.03;4966568;28;20320;-54
2022/03/04 06:47:11;;;;;;;23.67;16.90;;;;;;;-4.95;100.00;97269.19;4948020;28;20236;-48
2022/03/04 06:49:39;;;;;;;23.43;17.70;;;;;;;-4.86;100.00;97277.34;4968585;28;20293;-51
2022/03/04 06:52:08;;;;;;;26.90;15.53;;;;;;;-4.83;100.00;97283.19;4943102;28;20725;-48
2022/03/04 06:54:37;;;;;;;22.10;15.37;;;;;;;-4.78;100.00;97275.16;4938700;28;20217;-52
2022/03/04 06:57:07;;;;;;;19.80;14.43;;;;;;;-4.64;100.00;97276.97;4949924;28;20250;-50
2022/03/04 06:59:35;;;;;;;24.20;16.00;;;;;;;-4.42;100.00;97279.16;4964349;28;20206;-52
2022/03/04 07:02:06;;;;;;;26.70;17.33;;;;;;;-4.27;100.00;97280.03;4953312;28;20241;-51
2022/03/04 07:04:35;;;;;;;21.00;15.93;;;;;;;-3.88;100.00;97271.78;4966436;28;20301;-54
2022/03/04 07:07:04;;;;;;;24.47;17.10;;;;;;;-3.93;100.00;97265.13;4951884;28;20621;-54
2022/03/04 07:09:32;;;;;;;26.73;15.57;;;;;;;-3.86;100.00;97282.88;4932545;28;20441;-50
2022/03/04 07:12:00;;;;;;;25.10;16.53;;;;;;;-3.77;100.00;97282.34;4949640;28;20661;-48
2022/03/04 07:14:30;;;;;;;21.60;15.50;;;;;;;-3.58;100.00;97278.66;4965618;28;20453;-54
2022/03/04 07:16:58;;;;;;;21.67;15.53;;;;;;;-3.20;100.00;97280.63;4962350;28;20750;-50
2022/03/04 07:19:26;;;;;;;24.90;15.97;;;;;;;-3.26;100.00;97289.63;4949114;28;20607;-50
2022/03/04 07:21:55;;;;;;;26.10;16.70;;;;;;;-3.23;100.00;97293.78;4963008;28;20498;-52
2022/03/04 07:24:23;;;;;;;21.63;15.57;;;;;;;-3.17;100.00;97297.78;4924238;28;20306;-49
2022/03/04 07:26:51;;;;;;;24.33;17.83;;;;;;;-2.98;100.00;97295.69;4935472;28;20842;-52
2022/03/04 07:29:19;;;;;;;22.53;16.10;;;;;;;-2.56;100.00;97297.41;4964699;28;20707;-53
2022/03/04 07:31:50;;;;;;;23.73;15.87;;;;;;;-2.23;100.00;97280.56;4961761;28;20206;-48
2022/03/04 07:34:18;;;;;;;21.80;16.17;;;;;;;-2.28;100.00;97290.44;4951890;28;20590;-46
2022/03/04 07:36:46;;;;;;;29.00;20.73;;;;;;;-2.07;100.00;97294.22;4963088;28;20249;-53
2022/03/04 07:39:15;;;;;;;24.37;15.90;;;;;;;-1.84;100.00;97288.41;4927471;28;20214;-47
2022/03/04 07:41:43;;;;;;;23.13;14.07;;;;;;;-1.65;100.00;97282.78;4935530;28;20775;-46
2022/03/04 07:44:11;;;;;;;23.77;15.43;;;;;;;-1.77;100.00;97285.28;4966257;28;20594;-50
2022/03/04 07:46:40;;;;;;;21.23;15.33;;;;;;;-1.52;100.00;97283.59;4962678;28;20605;-49
2022/03/04 07:49:09;;;;;;;17.53;13.40;;;;;;;-1.44;100.00;97282.25;4956275;28;20213;-48
2022/03/04 07:51:37;;;;;;;23.73;15.53;;;;;;;-1.32;100.00;97286.59;4960339;28;20629;-52
2022/03/04 07:54:06;;;;;;;18.17;13.27;;;;;;;-1.14;100.00;97287.06;4925039;28;20687;-50
2022/03/04 07:56:34;;;;;;;23.07;13.20;;;;;;;-0.80;100.00;97289.88;4943790;28;20241;-47
2022/03/04 07:59:02;;;;;;;19.30;12.70;;;;;;;-0.66;100.00;97295.88;4952642;28;20344;-45
2022/03/04 08:01:30;;;;;;;25.40;16.07;;;;;;;-0.66;100.00;97295.88;4962993;28;20593;-49
2022/03/04 08:03:59;;;;;;;18.17;14.37;;;;;;;-0.55;100.00;97292.50;4966723;28;20285;-50
2022/03/04 08:06:29;;;;;;;24.40;15.40;;;;;;;-0.25;100.00;97285.97;4946482;28;20320;-47
2022/03/04 08:08:57;;;;;;;20.37;13.73;;;;;;;-0.37;100.00;97293.75;4927620;28;20331;-54
2022/03/04 08:11:27;;;;;;;20.47;14.43;;;;;;;-0.21;100.00;97287.41;4946504;28;20245;-48
2022/03/04 08:13:55;;;;;;;18.47;14.83;;;;;;;-0.06;100.00;97294.09;4952105;28;20305;-46
2022/03/04 08:16:24;;;;;;;24.50;15.93;;;;;;;-0.14;100.00;97288.63;4966206;28;20727;-48
2022/03/04 08:18:53;;;;;;;19.27;13.70;;;;;;;0.14;100.00;97295.22;4966158;28;20455;-50
2022/03/04 08:21:21;;;;;;;20.50;14.03;;;;;;;0.14;100.00;97297.81;4951953;28;20209;-51
2022/03/04 08:23:50;;;;;;;15.83;12.90;;;;;;;0.33;100.00;97304.22;4921360;28;20518;-55
2022/03/04 08:26:20;;;;;;;22.17;14.70;;;;;;;0.39;100.00;97313.38;4963038;28;20320;-49
2022/03/04 08:28:48;;;;;;;16.40;12.50;;;;;;;0.36;100.00;97305.78;4952681;28;20217;-48
2022/03/04 08:31:16;;;;;;;21.90;15.03;;;;;;;0.46;100.00;97298.91;4964581;28;20449;-54
2022/03/04 08:33:45;;;;;;;18.07;12.70;;;;;;;0.46;100.00;97304.13;4958281;28;20212;-51
2022/03/04 08:36:14;;;;;;;19.67;13.53;;;;;;;0.50;100.00;97297.72;4951634;28;20232;-53
2022/03/04 08:38:42;;;;;;;19.07;14.33;;;;;;;0.51;100.00;97304.59;4960130;28;20237;-47
2022/03/04 08:41:12;;;;;;;20.07;12.60;;;;;;;0.52;100.00;97300.22;4922522;28;20313;-48
2022/03/04 08:43:40;;;;;;;18.67;13.63;;;;;;;0.48;100.00;97306.63;4946352;28;20300;-48
2022/03/04 08:46:12;;;;;;;18.10;13.10;;;;;;;0.69;100.00;97304.16;4963964;28;20278;-51
2022/03/04 08:48:40;;;;;;;20.47;15.57;;;;;;;0.65;100.00;97306.16;4960723;28;20391;-50
2022/03/04 08:51:08;;;;;;;24.03;13.77;;;;;;;0.86;100.00;97303.66;4949485;28;20225;-50
2022/03/04 08:53:37;;;;;;;19.33;13.63;;;;;;;0.77;100.00;97299.16;4957361;28;20466;-48
2022/03/04 08:56:05;;;;;;;21.20;14.83;;;;;;;1.12;100.00;97297.31;4923861;28;20704;-45
2022/03/04 08:58:35;;;;;;;19.33;13.83;;;;;;;1.29;100.00;97289.00;4946130;28;20324;-47
2022/03/04 09:01:05;;;;;;;17.87;13.30;;;;;;;1.51;100.00;97302.09;4964211;28;20768;-48
2022/03/04 09:03:33;;;;;;;19.83;13.80;;;;;;;1.36;100.00;97294.56;4960941;28;20199;-51
2022/03/04 09:06:01;;;;;;;17.67;12.77;;;;;;;1.39;100.00;97307.38;4961754;28;20312;-49
2022/03/04 09:08:30;;;;;;;17.00;12.57;;;;;;;1.57;100.00;97301.59;4949268;28;20654;-47
2022/03/04 09:10:58;;;;;;;15.30;12.63;;;;;;;1.90;100.00;97302.41;4959466;28;20207;-49
2022/03/04 09:13:27;;;;;;;19.20;13.77;;;;;;;1.84;100.00;97297.72;4912892;28;20369;-49
2022/03/04 09:15:56;;;;;;;14.07;11.63;;;;;;;2.06;100.00;97307.22;4959000;28;20763;-46
2022/03/04 09:18:24;;;;;;;14.43;11.33;;;;;;;2.26;100.00;97287.25;4961030;28;20329;-50
2022/03/04 09:20:53;;;;;;;13.30;10.93;;;;;;;2.08;100.00;97297.47;4965502;28;20515;-51
2022/03/04 09:23:21;;;;;;;14.33;10.20;;;;;;;2.02;100.00;97296.16;4947836;28;20338;-48
2022/03/04 09:25:55;;;;;;;14.63;11.33;;;;;;;2.03;100.00;97291.78;4960320;28;20281;-50
2022/03/04 09:28:23;;;;;;;15.57;10.50;;;;;;;2.44;100.00;97297.09;4918702;28;21035;-46
2022/03/04 09:30:52;;;;;;;16.37;10.80;;;;;;;2.23;100.00;97297.97;4952927;28;20512;-54
2022/03/04 09:33:21;;;;;;;16.70;11.70;;;;;;;2.34;100.00;97298.84;4960513;28;20958;-49
2022/03/04 09:35:49;;;;;;;12.00;9.53;;;;;;;2.67;100.00;97295.19;4960653;28;20431;-50
2022/03/04 09:38:18;;;;;;;14.23;10.63;;;;;;;2.77;100.00;97294.38;4946003;28;20304;-46
2022/03/04 09:40:47;;;;;;;12.83;10.90;;;;;;;2.83;100.00;97293.84;4963632;28;20237;-51
2022/03/04 09:43:17;;;;;;;14.33;10.63;;;;;;;2.93;100.00;97294.69;4920503;28;20598;-48
2022/03/04 09:45:47;;;;;;;18.73;11.90;;;;;;;2.96;100.00;97293.63;4943082;28;20308;-56
2022/03/04 09:48:16;;;;;;;14.53;10.87;;;;;;;3.22;100.00;97295.72;4963931;28;20226;-53
2022/03/04 09:50:47;;;;;;;12.03;10.43;;;;;;;3.47;100.00;97297.84;4962647;28;20229;-52
2022/03/04 09:53:16;;;;;;;12.67;10.63;;;;;;;3.32;100.00;97296.59;4963592;28;20643;-54
2022/03/04 09:55:45;;;;;;;14.03;10.73;;;;;;;3.47;98.35;97290.00;4947367;28;20492;-53
2022/03/04 09:58:14;;;;;;;12.17;10.87;;;;;;;3.45;99.72;97289.31;4923177;28;20225;-48
2022/03/04 10:00:44;;;;;;;11.47;9.87;;;;;;;3.55;93.92;97288.47;4945236;28;22736;-55
2022/03/04 10:03:21;;;;;;;13.40;9.80;;;;;;;3.56;100.00;97293.59;4962616;28;20218;-49
2022/03/04 10:05:55;;;;;;;11.17;8.57;;;;;;;3.79;92.59;97284.63;4963698;28;20348;-52
2022/03/04 10:08:24;;;;;;;13.80;9.63;;;;;;;3.38;100.00;97300.44;4964933;28;20233;-50
2022/03/04 10:10:53;;;;;;;15.03;10.80;;;;;;;3.47;100.00;97284.75;4952028;28;20520;-49
2022/03/04 10:13:42;;;;;;;13.20;10.23;;;;;;;3.42;100.00;97294.81;4950742;28;20312;-54
2022/03/04 10:16:11;;;;;;;14.87;10.13;;;;;;;3.16;98.94;97287.44;4951151;28;20368;-52
2022/03/04 10:18:39;;;;;;;10.37;9.27;;;;;;;3.09;100.00;97291.56;4961842;28;20233;-55
2022/03/04 10:21:09;;;;;;;12.83;10.23;;;;;;;3.36;100.00;97289.28;4966925;28;20296;-51
2022/03/04 10:23:37;;;;;;;13.63;10.93;;;;;;;3.45;100.00;97291.91;4963580;28;20874;-48
2022/03/04 10:26:05;;;;;;;15.13;10.47;;;;;;;3.50;99.76;97294.16;4952233;28;20234;-48
2022/03/04 10:28:33;;;;;;;12.27;9.70;;;;;;;3.38;97.17;97298.66;4963633;28;20230;-48
2022/03/04 10:31:02;;;;;;;15.00;10.13;;;;;;;3.94;91.33;97303.38;4924939;28;20210;-52
2022/03/04 10:34:06;;;;;;;12.00;8.50;;;;;;;3.63;93.30;97304.38;4959524;28;21293;-50
2022/03/04 10:36:56;;;;;;;11.17;9.27;;;;;;;3.67;90.84;97302.28;4964397;28;20800;-49
2022/03/04 10:39:24;;;;;;;11.97;9.50;;;;;;;3.91;85.13;97302.69;4966026;28;20517;-46
2022/03/04 10:41:52;;;;;;;10.37;8.43;;;;;;;3.88;77.70;97292.50;4949429;28;20441;-50
2022/03/04 10:44:27;;;;;;;10.93;9.30;;;;;;;3.54;88.64;97292.91;4965778;28;20244;-49
2022/03/04 10:46:56;;;;;;;12.63;9.57;;;;;;;3.49;92.50;97297.72;4925136;28;20217;-52
2022/03/04 10:49:25;;;;;;;9.50;8.33;;;;;;;3.32;91.70;97299.22;4949147;28;20627;-48
2022/03/04 10:52:07;;;;;;;10.87;9.07;;;;;;;3.38;91.84;97298.66;4965437;28;20938;-49
2022/03/04 10:54:36;;;;;;;11.27;8.23;;;;;;;3.38;90.92;97289.97;4961881;28;20280;-49
2022/03/04 10:57:04;;;;;;;10.30;8.27;;;;;;;3.52;88.64;97302.69;4964862;28;20230;-50
2022/03/04 10:59:35;;;;;;;10.17;8.30;;;;;;;3.91;85.63;97292.22;4946600;28;20760;-49
2022/03/04 11:02:03;;;;;;;11.10;8.53;;;;;;;3.87;83.83;97295.25;4929345;28;20221;-47
2022/03/04 11:04:32;;;;;;;11.03;7.90;;;;;;;3.88;84.55;97292.50;4949059;28;20653;-46
2022/03/04 11:07:00;;;;;;;11.73;8.50;;;;;;;4.08;79.95;97294.28;4965490;28;20314;-50
2022/03/04 11:09:30;;;;;;;8.47;7.60;;;;;;;3.73;70.53;97289.47;4963292;28;20229;-49
2022/03/04 11:11:58;;;;;;;8.23;7.43;;;;;;;3.95;70.31;97292.75;4969093;28;20318;-53
2022/03/04 11:14:27;;;;;;;10.63;7.10;;;;;;;4.04;68.94;97281.44;4948644;28;20201;-47
2022/03/04 11:17:01;;;;;;;7.90;7.10;;;;;;;4.03;63.55;97290.28;4965167;28;20309;-49
2022/03/04 11:19:29;;;;;;;9.17;6.37;;;;;;;4.30;67.25;97280.00;4910933;28;20698;-48
2022/03/04 11:21:58;;;;;;;8.33;7.33;;;;;;;4.40;62.65;97286.06;4965777;28;20209;-52